Hlavní strana
METAR-TAF:

METAR-TAF

Letiště :

Røst, Norsko

zeměpisná šířka: 67-31N, zeměpisná délka: 012-06E, výška: 4 m

Aktuální stav počasí

Zpráva byla vytvořena před 9 hodinami a 26 minutami, v 15:50 UTC
Jižní vítr 16 kt
Teplota 15°C
Vlhkost vzduchu 82%
Tlak 1001 hPa
Viditelnost 10 km a více
Polojasno ve výšce 1900 ft
Polojasno ve výšce 3000 ft
přeháňky v blízkosti

METAR: ENRS 171550Z 18016KT 9999 VCSH SCT019 SCT030 15/12 Q1001

Čas: 03:16 (01:16 UTC)


TAF: chybějící

Stav a předpovědi počasí z více než 4 000 letišť (zprávy METAR a TAF).

Červené a žluté tečky na mapě představují dostupné meteorologické stanice.

Když kurzor umístíte na tečku, zobrazí se název stanice.

Pak kliknutím zobrazíte stav a předpověď počasí.

Chcete-li změnit mapu, kliknutím na zelené tlačítko se znaménkem +mapu přiblížíte, kliknutím na zelené tlačítko se znaménkem – mapu oddálíte a kliknutím na zelené šipky přejdete na sousední mapy.


METAR-TAF: